KLFK

Angelina County Airport

Lufkin, Texas, USA
KLFK 160540Z 1606/1706 34005KT P6SM SCT015 BKN025 FM160800 36006KT P6SM SCT025 BKN250 TEMPO 1610/1613 BKN012 FM161300 03007KT P6SM SCT007 OVC012 FM161800 05006KT P6SM SCT008 OVC013 FM170000 10004KT P6SM OVC007
Issued Valid From Valid To
Feb-16 @ 05:40 UTC
(6 hours ago)
Feb-16 @ 06:00 UTC
(5 hours ago)
Feb-17 @ 06:00 UTC
(in 19 hours)
Expired Click to View Feb-16 @ 06:00 to Feb-16 @ 08:00
KLFK 160540Z 1606/1706 34005KT P6SM SCT015 BKN025
Wind Visibility Clouds
340° at 5 knots Greater than 6 miles
  • Scattered at 1,500' AGL
  • Broken at 2,500' AGL
From Feb-16 @ 08:00 to Feb-16 @ 13:00
FM160800 36006KT P6SM SCT025 BKN250
Wind Visibility Clouds
360° at 6 knots Greater than 6 miles
  • Scattered at 2,500' AGL
  • Broken at 25,000' AGL
Temporary Feb-16 @ 10:00 to Feb-16 @ 13:00
TEMPO 1610/1613 BKN012
Clouds
  • Broken at 1,200' AGL
From Feb-16 @ 13:00 to Feb-16 @ 18:00
FM161300 03007KT P6SM SCT007 OVC012
Wind Visibility Clouds
30° at 7 knots Greater than 6 miles
  • Scattered at 700' AGL
  • Overcast at 1,200' AGL
From Feb-16 @ 18:00 to Feb-17 @ 00:00
FM161800 05006KT P6SM SCT008 OVC013
Wind Visibility Clouds
50° at 6 knots Greater than 6 miles
  • Scattered at 800' AGL
  • Overcast at 1,300' AGL
From Feb-17 @ 00:00 to Feb-17 @ 06:00
FM170000 10004KT P6SM OVC007
Wind Visibility Clouds
100° at 4 knots Greater than 6 miles
  • Overcast at 700' AGL
KLFK 160540Z 1606/1706 34005KT P6SM SCT015 BKN025 FM160800 36006KT P6SM SCT025 BKN250 TEMPO 1610/1613 BKN012 FM161300 03007KT P6SM SCT007 OVC012 FM161800 05006KT P6SM SCT008 OVC013 FM170000 10004KT P6SM OVC007
Issued Feb-16 @ 05:40 UTC
(6 hours ago)
Valid From Feb-16 @ 06:00 UTC
(5 hours ago)
Valid To Feb-17 @ 06:00 UTC
(in 19 hours)
Feb-16 @ 06:00 - Feb-16 @ 08:00
Wind Visibility
340° at 5 knots Greater than 6 miles
Clouds
  • Scattered at 1,500' AGL
  • Broken at 2,500' AGL
From Feb-16 @ 08:00 - Feb-16 @ 13:00
Wind Visibility
360° at 6 knots Greater than 6 miles
Clouds
  • Scattered at 2,500' AGL
  • Broken at 25,000' AGL
Temporary Feb-16 @ 10:00 - Feb-16 @ 13:00
Clouds
  • Broken at 1,200' AGL
From Feb-16 @ 13:00 - Feb-16 @ 18:00
Wind Visibility
30° at 7 knots Greater than 6 miles
Clouds
  • Scattered at 700' AGL
  • Overcast at 1,200' AGL
From Feb-16 @ 18:00 - Feb-17 @ 00:00
Wind Visibility
50° at 6 knots Greater than 6 miles
Clouds
  • Scattered at 800' AGL
  • Overcast at 1,300' AGL
From Feb-17 @ 00:00 - Feb-17 @ 06:00
Wind Visibility
100° at 4 knots Greater than 6 miles
Clouds
  • Overcast at 700' AGL